FAJ737 NZQN-NFFN
Flight info
| Callsign | FAJ737 |
|---|---|
| Flight time | 4h 1m |
| Altitude | FL390 |
| Route | GIXEL3 SAVLA Y569 PEDPO Q335 TONUS H252 NP H384 AA A578 AGTAG AGTA2B |
| Aircraft | B737/M-SDE2E3FGHIRWXY/LB1 |
Departure
| Time | 2026-05-05 14:49 |
|---|---|
| Airport | Queenstown Airport (NZQN) |
Arrival
| Time | 2026-05-05 18:50 |
|---|---|
| Airport | Nadi International Airport (NFFN) |
| Time | Latitude | Longitude | Altitude | Speed | Heading |
|---|---|---|---|---|---|
| 2026-05-05 14:07 | -45.02234 | 168.74129 | 1173 ft | 0 kts | 252° |
| 2026-05-05 14:35 | -45.02230 | 168.74150 | 1169 ft | 4 kts | 264° |
| 2026-05-05 14:35 | -45.02232 | 168.74187 | 1169 ft | 4 kts | 284° |
| 2026-05-05 14:36 | -45.02236 | 168.74207 | 1170 ft | 1 kts | 285° |
| 2026-05-05 14:36 | -45.02236 | 168.74209 | 1170 ft | 0 kts | 285° |
| 2026-05-05 14:39 | -45.02220 | 168.74199 | 1163 ft | 4 kts | 347° |
| 2026-05-05 14:39 | -45.02186 | 168.74187 | 1170 ft | 6 kts | 347° |
| 2026-05-05 14:40 | -45.02164 | 168.74181 | 1170 ft | 2 kts | 347° |
| 2026-05-05 14:40 | -45.02144 | 168.74170 | 1171 ft | 5 kts | 335° |
| 2026-05-05 14:40 | -45.02116 | 168.74139 | 1171 ft | 6 kts | 307° |
| 2026-05-05 14:40 | -45.02096 | 168.74089 | 1169 ft | 6 kts | 297° |
| 2026-05-05 14:41 | -45.02079 | 168.74040 | 1170 ft | 6 kts | 297° |
| 2026-05-05 14:41 | -45.02056 | 168.74000 | 1169 ft | 5 kts | 341° |
| 2026-05-05 14:41 | -45.02019 | 168.74006 | 1171 ft | 5 kts | 29° |
| 2026-05-05 14:41 | -45.02015 | 168.74008 | 1174 ft | 0 kts | 26° |
| 2026-05-05 14:43 | -45.02013 | 168.74010 | 1170 ft | 0 kts | 24° |
| 2026-05-05 14:46 | -45.02006 | 168.74014 | 1173 ft | 3 kts | 24° |
| 2026-05-05 14:46 | -45.01984 | 168.74027 | 1174 ft | 3 kts | 22° |
| 2026-05-05 14:46 | -45.01969 | 168.74036 | 1174 ft | 0 kts | 22° |
| 2026-05-05 14:47 | -45.01959 | 168.74041 | 1173 ft | 6 kts | 19° |
| 2026-05-05 14:47 | -45.01920 | 168.74074 | 1174 ft | 7 kts | 67° |
| 2026-05-05 14:47 | -45.01918 | 168.74089 | 1176 ft | 0 kts | 81° |
| 2026-05-05 14:48 | -45.01900 | 168.74209 | 1176 ft | 46 kts | 77° |
| 2026-05-05 14:48 | -45.01768 | 168.75036 | 1180 ft | 124 kts | 77° |
| 2026-05-05 14:48 | -45.01567 | 168.76407 | 1561 ft | 148 kts | 81° |
| 2026-05-05 14:49 | -45.01466 | 168.77915 | 2065 ft | 172 kts | 84° |
| 2026-05-05 14:49 | -45.01297 | 168.79800 | 2435 ft | 210 kts | 73° |
| 2026-05-05 14:49 | -45.00870 | 168.81880 | 2890 ft | 232 kts | 77° |
| 2026-05-05 14:49 | -45.00738 | 168.84229 | 3475 ft | 248 kts | 89° |
| 2026-05-05 14:50 | -45.00941 | 168.86702 | 4241 ft | 259 kts | 98° |
| 2026-05-05 14:50 | -45.01384 | 168.89135 | 5449 ft | 252 kts | 103° |
| 2026-05-05 14:50 | -45.01915 | 168.91424 | 6698 ft | 241 kts | 106° |
| 2026-05-05 14:50 | -45.02480 | 168.93694 | 7422 ft | 251 kts | 106° |
| 2026-05-05 14:51 | -45.03054 | 168.96066 | 8143 ft | 258 kts | 97° |
| 2026-05-05 14:51 | -45.03014 | 168.98517 | 9003 ft | 249 kts | 64° |
| 2026-05-05 14:51 | -45.02156 | 169.00558 | 9750 ft | 244 kts | 36° |
| 2026-05-05 14:51 | -45.00683 | 169.01814 | 10054 ft | 258 kts | 11° |
| 2026-05-05 14:52 | -44.98911 | 169.02431 | 10602 ft | 272 kts | 5° |
| 2026-05-05 14:52 | -44.96958 | 169.02935 | 10850 ft | 300 kts | 5° |
| 2026-05-05 14:52 | -44.94881 | 169.03450 | 11536 ft | 310 kts | 5° |
| 2026-05-05 14:52 | -44.92745 | 169.03997 | 12360 ft | 316 kts | 5° |
| 2026-05-05 14:53 | -44.90580 | 169.04567 | 13287 ft | 319 kts | 6° |
| 2026-05-05 14:53 | -44.88385 | 169.05153 | 14198 ft | 325 kts | 6° |
| 2026-05-05 14:53 | -44.86148 | 169.05756 | 15010 ft | 331 kts | 7° |
| 2026-05-05 14:53 | -44.83871 | 169.06372 | 15915 ft | 336 kts | 7° |
| 2026-05-05 14:54 | -44.81565 | 169.06993 | 16767 ft | 342 kts | 7° |
| 2026-05-05 14:54 | -44.79206 | 169.07626 | 17546 ft | 349 kts | 8° |
| 2026-05-05 14:54 | -44.76801 | 169.08270 | 18345 ft | 355 kts | 8° |
| 2026-05-05 14:54 | -44.74359 | 169.08929 | 19081 ft | 361 kts | 8° |
| 2026-05-05 14:55 | -44.71051 | 169.09820 | 20062 ft | 366 kts | 8° |
| 2026-05-05 14:55 | -44.69381 | 169.10267 | 20585 ft | 369 kts | 8° |
| 2026-05-05 14:55 | -44.66854 | 169.10944 | 21302 ft | 373 kts | 8° |
| 2026-05-05 14:55 | -44.64261 | 169.11227 | 21888 ft | 377 kts | 352° |
| 2026-05-05 14:56 | -44.61667 | 169.10636 | 22663 ft | 379 kts | 348° |
| 2026-05-05 14:56 | -44.59060 | 169.10010 | 23405 ft | 383 kts | 349° |
| 2026-05-05 14:56 | -44.56413 | 169.09417 | 24058 ft | 389 kts | 350° |
| 2026-05-05 14:56 | -44.53695 | 169.09370 | 24619 ft | 398 kts | 7° |
| 2026-05-05 14:57 | -44.51037 | 169.10514 | 25168 ft | 406 kts | 23° |
| 2026-05-05 14:57 | -44.48545 | 169.12402 | 25307 ft | 408 kts | 27° |
| 2026-05-05 14:57 | -44.46099 | 169.14417 | 25329 ft | 410 kts | 28° |
| 2026-05-05 14:57 | -44.43645 | 169.16468 | 25332 ft | 412 kts | 28° |
| 2026-05-05 14:58 | -44.41185 | 169.18504 | 25336 ft | 411 kts | 26° |
| 2026-05-05 14:58 | -44.38722 | 169.20511 | 25338 ft | 411 kts | 26° |
| 2026-05-05 14:58 | -44.36247 | 169.22507 | 25340 ft | 411 kts | 26° |
| 2026-05-05 14:58 | -44.33776 | 169.24486 | 25346 ft | 412 kts | 26° |
| 2026-05-05 14:59 | -44.31292 | 169.26467 | 25341 ft | 411 kts | 27° |
| 2026-05-05 14:59 | -44.28820 | 169.28438 | 25353 ft | 411 kts | 26° |
| 2026-05-05 14:59 | -44.26336 | 169.30414 | 25362 ft | 411 kts | 26° |
| 2026-05-05 14:59 | -44.23861 | 169.32381 | 25366 ft | 411 kts | 27° |
| 2026-05-05 15:00 | -44.21360 | 169.34369 | 25625 ft | 418 kts | 27° |
| 2026-05-05 15:00 | -44.18835 | 169.36367 | 26264 ft | 419 kts | 26° |
| 2026-05-05 15:00 | -44.16298 | 169.38359 | 26930 ft | 419 kts | 26° |
| 2026-05-05 15:00 | -44.13755 | 169.40363 | 27489 ft | 423 kts | 26° |
| 2026-05-05 15:01 | -44.11185 | 169.42394 | 27968 ft | 429 kts | 27° |
| 2026-05-05 15:01 | -44.08579 | 169.44448 | 28433 ft | 432 kts | 26° |
| 2026-05-05 15:01 | -44.05962 | 169.46512 | 28972 ft | 435 kts | 26° |
| 2026-05-05 15:01 | -44.03325 | 169.48593 | 29511 ft | 438 kts | 26° |
| 2026-05-05 15:02 | -44.00667 | 169.50686 | 29971 ft | 442 kts | 26° |
| 2026-05-05 15:02 | -43.97991 | 169.52791 | 30448 ft | 445 kts | 26° |
| 2026-05-05 15:02 | -43.95290 | 169.54913 | 30860 ft | 448 kts | 26° |
| 2026-05-05 15:02 | -43.92575 | 169.57043 | 31249 ft | 451 kts | 26° |
| 2026-05-05 15:03 | -43.89836 | 169.59188 | 31596 ft | 455 kts | 26° |
| 2026-05-05 15:03 | -43.87080 | 169.61344 | 31961 ft | 457 kts | 26° |
| 2026-05-05 15:03 | -43.84302 | 169.63515 | 32303 ft | 460 kts | 26° |
| 2026-05-05 15:03 | -43.81524 | 169.65685 | 32730 ft | 460 kts | 26° |
| 2026-05-05 15:04 | -43.78746 | 169.67853 | 33244 ft | 458 kts | 26° |
| 2026-05-05 15:04 | -43.75988 | 169.70004 | 33728 ft | 456 kts | 26° |
| 2026-05-05 15:04 | -43.73224 | 169.72156 | 34076 ft | 458 kts | 26° |
| 2026-05-05 15:04 | -43.70462 | 169.74302 | 34388 ft | 460 kts | 26° |
| 2026-05-05 15:05 | -43.64925 | 169.78601 | 35245 ft | 455 kts | 26° |
| 2026-05-05 15:05 | -43.61272 | 169.81431 | 35846 ft | 450 kts | 25° |
| 2026-05-05 15:05 | -43.59465 | 169.82831 | 36163 ft | 448 kts | 25° |
| 2026-05-05 15:06 | -43.56758 | 169.84926 | 36507 ft | 448 kts | 25° |
| 2026-05-05 15:06 | -43.54039 | 169.87026 | 36699 ft | 450 kts | 25° |
| 2026-05-05 15:06 | -43.51326 | 169.89119 | 36976 ft | 451 kts | 25° |
| 2026-05-05 15:06 | -43.48663 | 169.91186 | 37355 ft | 450 kts | 27° |
| 2026-05-05 15:07 | -43.46115 | 169.93674 | 37725 ft | 452 kts | 35° |
| 2026-05-05 15:07 | -43.43706 | 169.96436 | 38038 ft | 452 kts | 37° |
| 2026-05-05 15:07 | -43.41339 | 169.99295 | 38304 ft | 453 kts | 38° |
| 2026-05-05 15:07 | -43.38990 | 170.02163 | 38579 ft | 453 kts | 38° |
| 2026-05-05 15:08 | -43.36634 | 170.05016 | 38858 ft | 453 kts | 37° |
| 2026-05-05 15:08 | -43.34267 | 170.07843 | 39122 ft | 452 kts | 37° |
| 2026-05-05 15:08 | -43.31882 | 170.10657 | 39351 ft | 452 kts | 37° |
| 2026-05-05 15:09 | -43.27063 | 170.16270 | 39396 ft | 457 kts | 36° |
| 2026-05-05 15:09 | -43.22218 | 170.21877 | 39398 ft | 454 kts | 36° |
| 2026-05-05 15:10 | -43.17468 | 170.27365 | 39399 ft | 450 kts | 36° |
| 2026-05-05 15:10 | -43.12714 | 170.32845 | 39410 ft | 449 kts | 36° |
| 2026-05-05 15:11 | -43.07988 | 170.38283 | 39412 ft | 449 kts | 36° |
| 2026-05-05 15:11 | -43.03215 | 170.43763 | 39411 ft | 449 kts | 36° |
| 2026-05-05 15:12 | -42.98436 | 170.49239 | 39403 ft | 450 kts | 37° |
| 2026-05-05 15:12 | -42.93639 | 170.54724 | 39421 ft | 451 kts | 37° |
| 2026-05-05 15:13 | -42.88028 | 170.61126 | 39397 ft | 453 kts | 37° |
| 2026-05-05 15:13 | -42.84003 | 170.65709 | 39396 ft | 453 kts | 37° |
| 2026-05-05 15:14 | -42.79167 | 170.71205 | 39418 ft | 454 kts | 37° |
| 2026-05-05 15:14 | -42.74317 | 170.76704 | 39418 ft | 455 kts | 37° |
| 2026-05-05 15:15 | -42.69456 | 170.82206 | 39413 ft | 456 kts | 37° |
| 2026-05-05 15:15 | -42.64589 | 170.87702 | 39394 ft | 456 kts | 37° |
| 2026-05-05 15:16 | -42.59720 | 170.93189 | 39420 ft | 456 kts | 37° |
| 2026-05-05 15:16 | -42.54846 | 170.98670 | 39414 ft | 456 kts | 37° |
| 2026-05-05 15:17 | -42.49973 | 171.04138 | 39410 ft | 455 kts | 37° |
| 2026-05-05 15:17 | -42.45099 | 171.09596 | 39417 ft | 455 kts | 37° |
| 2026-05-05 15:18 | -42.40231 | 171.15036 | 39413 ft | 455 kts | 37° |
| 2026-05-05 15:18 | -42.35382 | 171.20443 | 39409 ft | 454 kts | 37° |
| 2026-05-05 15:19 | -42.30532 | 171.25841 | 39418 ft | 454 kts | 37° |
| 2026-05-05 15:19 | -42.25660 | 171.31251 | 39409 ft | 454 kts | 37° |
| 2026-05-05 15:20 | -42.20807 | 171.36631 | 39426 ft | 454 kts | 37° |
| 2026-05-05 15:20 | -42.15929 | 171.42026 | 39420 ft | 454 kts | 37° |
| 2026-05-05 15:21 | -42.11087 | 171.47371 | 39423 ft | 455 kts | 37° |
| 2026-05-05 15:21 | -42.06202 | 171.52753 | 39420 ft | 455 kts | 37° |
| 2026-05-05 15:22 | -42.01325 | 171.58116 | 39423 ft | 455 kts | 37° |
| 2026-05-05 15:22 | -41.96425 | 171.63488 | 39415 ft | 455 kts | 37° |
| 2026-05-05 15:23 | -41.91523 | 171.68844 | 39434 ft | 455 kts | 37° |
| 2026-05-05 15:23 | -41.86611 | 171.74201 | 39416 ft | 456 kts | 37° |
| 2026-05-05 15:24 | -41.81703 | 171.79545 | 39419 ft | 456 kts | 37° |
| 2026-05-05 15:24 | -41.76840 | 171.84830 | 39428 ft | 456 kts | 37° |
| 2026-05-05 15:25 | -41.71917 | 171.90170 | 39420 ft | 456 kts | 37° |
| 2026-05-05 15:25 | -41.66994 | 171.95499 | 39419 ft | 456 kts | 37° |
| 2026-05-05 15:26 | -41.62070 | 172.00818 | 39425 ft | 456 kts | 37° |
| 2026-05-05 15:26 | -41.57139 | 172.06134 | 39418 ft | 457 kts | 37° |
| 2026-05-05 15:27 | -41.52195 | 172.11453 | 39421 ft | 457 kts | 37° |
| 2026-05-05 15:27 | -41.47257 | 172.16755 | 39414 ft | 457 kts | 37° |
| 2026-05-05 15:28 | -41.42308 | 172.22059 | 39410 ft | 457 kts | 37° |
| 2026-05-05 15:28 | -41.37358 | 172.27351 | 39416 ft | 457 kts | 37° |
| 2026-05-05 15:29 | -41.32435 | 172.32606 | 39412 ft | 458 kts | 37° |
| 2026-05-05 15:29 | -41.27477 | 172.37887 | 39408 ft | 458 kts | 37° |
| 2026-05-05 15:30 | -41.21683 | 172.44044 | 39418 ft | 458 kts | 37° |
| 2026-05-05 15:30 | -41.17543 | 172.48436 | 39416 ft | 458 kts | 37° |
| 2026-05-05 15:31 | -41.12564 | 172.53707 | 39410 ft | 459 kts | 37° |
| 2026-05-05 15:31 | -41.07582 | 172.58971 | 39399 ft | 459 kts | 37° |
| 2026-05-05 15:32 | -41.02600 | 172.64225 | 39410 ft | 459 kts | 37° |
| 2026-05-05 15:32 | -40.97613 | 172.69473 | 39411 ft | 459 kts | 37° |
| 2026-05-05 15:33 | -40.92625 | 172.74712 | 39405 ft | 459 kts | 37° |
| 2026-05-05 15:33 | -40.87632 | 172.79946 | 39401 ft | 459 kts | 37° |
| 2026-05-05 15:34 | -40.82641 | 172.85168 | 39405 ft | 459 kts | 37° |
| 2026-05-05 15:34 | -40.77640 | 172.90389 | 39400 ft | 459 kts | 37° |
| 2026-05-05 15:35 | -40.72637 | 172.95602 | 39404 ft | 459 kts | 37° |
| 2026-05-05 15:35 | -40.66875 | 173.01595 | 39390 ft | 460 kts | 37° |
| 2026-05-05 15:36 | -40.62707 | 173.05919 | 39397 ft | 460 kts | 37° |
| 2026-05-05 15:36 | -40.57692 | 173.11115 | 39397 ft | 460 kts | 37° |
| 2026-05-05 15:37 | -40.52669 | 173.16309 | 39397 ft | 460 kts | 37° |
| 2026-05-05 15:37 | -40.47644 | 173.21494 | 39396 ft | 460 kts | 37° |
| 2026-05-05 15:38 | -40.42636 | 173.26652 | 39394 ft | 460 kts | 37° |
| 2026-05-05 15:38 | -40.37586 | 173.31843 | 39396 ft | 460 kts | 37° |
| 2026-05-05 15:39 | -40.32557 | 173.37002 | 39396 ft | 460 kts | 37° |
| 2026-05-05 15:39 | -40.27531 | 173.42148 | 39389 ft | 460 kts | 37° |
| 2026-05-05 15:40 | -40.22501 | 173.47289 | 39399 ft | 459 kts | 37° |
| 2026-05-05 15:40 | -40.17469 | 173.52422 | 39399 ft | 460 kts | 37° |
| 2026-05-05 15:41 | -40.12438 | 173.57545 | 39399 ft | 460 kts | 37° |
| 2026-05-05 15:41 | -40.07398 | 173.62667 | 39395 ft | 460 kts | 37° |
| 2026-05-05 15:42 | -40.02359 | 173.67778 | 39402 ft | 460 kts | 37° |
| 2026-05-05 15:42 | -39.97317 | 173.72883 | 39405 ft | 460 kts | 37° |
| 2026-05-05 15:43 | -39.92269 | 173.77988 | 39405 ft | 460 kts | 37° |
| 2026-05-05 15:43 | -39.87002 | 173.82669 | 39401 ft | 459 kts | 25° |
| 2026-05-05 15:44 | -39.81041 | 173.85473 | 39410 ft | 457 kts | 15° |
| 2026-05-05 15:44 | -39.74968 | 173.87882 | 39406 ft | 457 kts | 15° |
| 2026-05-05 15:45 | -39.68900 | 173.90347 | 39406 ft | 458 kts | 16° |
| 2026-05-05 15:45 | -39.62838 | 173.92855 | 39411 ft | 459 kts | 16° |
| 2026-05-05 15:46 | -39.56822 | 173.95347 | 39413 ft | 459 kts | 16° |
| 2026-05-05 15:46 | -39.50753 | 173.97853 | 39417 ft | 459 kts | 16° |
| 2026-05-05 15:47 | -39.44711 | 174.00343 | 39415 ft | 459 kts | 16° |
| 2026-05-05 15:47 | -39.38651 | 174.02846 | 39408 ft | 460 kts | 16° |
| 2026-05-05 15:48 | -39.32562 | 174.05352 | 39419 ft | 460 kts | 17° |
| 2026-05-05 15:48 | -39.26511 | 174.07838 | 39424 ft | 461 kts | 16° |
| 2026-05-05 15:49 | -39.20444 | 174.10326 | 39429 ft | 461 kts | 15° |
| 2026-05-05 15:49 | -39.14349 | 174.12824 | 39427 ft | 460 kts | 16° |
| 2026-05-05 15:50 | -39.08256 | 174.15316 | 39430 ft | 460 kts | 16° |
| 2026-05-05 15:50 | -39.02158 | 174.17805 | 39428 ft | 460 kts | 16° |
| 2026-05-05 15:51 | -38.96020 | 174.20044 | 39416 ft | 459 kts | 12° |
| 2026-05-05 15:51 | -38.89828 | 174.21985 | 39426 ft | 459 kts | 12° |
| 2026-05-05 15:52 | -38.83657 | 174.23910 | 39424 ft | 458 kts | 12° |
| 2026-05-05 15:52 | -38.77477 | 174.25874 | 39422 ft | 458 kts | 12° |
| 2026-05-05 15:53 | -38.71303 | 174.27853 | 39417 ft | 458 kts | 12° |
| 2026-05-05 15:53 | -38.65130 | 174.29832 | 39427 ft | 458 kts | 12° |
| 2026-05-05 15:54 | -38.58953 | 174.31807 | 39423 ft | 459 kts | 12° |
| 2026-05-05 15:54 | -38.52777 | 174.33778 | 39422 ft | 459 kts | 12° |
| 2026-05-05 15:55 | -38.46595 | 174.35746 | 39415 ft | 459 kts | 12° |
| 2026-05-05 15:55 | -38.40416 | 174.37711 | 39426 ft | 459 kts | 12° |
| 2026-05-05 15:56 | -38.34226 | 174.39675 | 39428 ft | 459 kts | 12° |
| 2026-05-05 15:56 | -38.28038 | 174.41636 | 39428 ft | 459 kts | 12° |
| 2026-05-05 15:57 | -38.21865 | 174.43588 | 39425 ft | 459 kts | 12° |
| 2026-05-05 15:57 | -38.15668 | 174.45544 | 39426 ft | 460 kts | 12° |
| 2026-05-05 15:58 | -38.09478 | 174.47496 | 39425 ft | 460 kts | 12° |
| 2026-05-05 15:58 | -38.03280 | 174.49446 | 39416 ft | 460 kts | 12° |
| 2026-05-05 15:59 | -37.97083 | 174.51393 | 39419 ft | 460 kts | 12° |
| 2026-05-05 15:59 | -37.90886 | 174.53339 | 39424 ft | 460 kts | 12° |
| 2026-05-05 16:00 | -37.84691 | 174.55285 | 39428 ft | 460 kts | 12° |
| 2026-05-05 16:00 | -37.78495 | 174.57228 | 39419 ft | 460 kts | 12° |
| 2026-05-05 16:01 | -37.72299 | 174.59167 | 39425 ft | 460 kts | 12° |
| 2026-05-05 16:01 | -37.66099 | 174.61104 | 39422 ft | 460 kts | 12° |
| 2026-05-05 16:02 | -37.59901 | 174.63037 | 39418 ft | 460 kts | 12° |
| 2026-05-05 16:02 | -37.53707 | 174.64966 | 39416 ft | 460 kts | 12° |
| 2026-05-05 16:03 | -37.47538 | 174.66883 | 39432 ft | 460 kts | 12° |
| 2026-05-05 16:03 | -37.41347 | 174.68804 | 39427 ft | 460 kts | 12° |
| 2026-05-05 16:04 | -37.35141 | 174.70727 | 39413 ft | 460 kts | 12° |
| 2026-05-05 16:04 | -37.29018 | 174.72620 | 39416 ft | 460 kts | 12° |
| 2026-05-05 16:05 | -37.22818 | 174.74534 | 39425 ft | 460 kts | 12° |
| 2026-05-05 16:05 | -37.16613 | 174.76447 | 39423 ft | 460 kts | 12° |
| 2026-05-05 16:06 | -37.10413 | 174.78355 | 39419 ft | 460 kts | 12° |
| 2026-05-05 16:06 | -37.04360 | 174.80217 | 38654 ft | 431 kts | 12° |
| 2026-05-05 16:06 | -37.01137 | 174.81300 | 36382 ft | 500 kts | 13° |
| 2026-05-05 16:07 | -36.97888 | 174.82403 | 37161 ft | 472 kts | 10° |
| 2026-05-05 16:07 | -36.94706 | 174.83063 | 37952 ft | 459 kts | 4° |
| 2026-05-05 16:07 | -36.91586 | 174.83444 | 38459 ft | 454 kts | 2° |
| 2026-05-05 16:07 | -36.88439 | 174.83750 | 38746 ft | 454 kts | 2° |
| 2026-05-05 16:08 | -36.85282 | 174.84074 | 38889 ft | 458 kts | 2° |
| 2026-05-05 16:08 | -36.82138 | 174.84447 | 39123 ft | 459 kts | 4° |
| 2026-05-05 16:08 | -36.78975 | 174.84875 | 39394 ft | 458 kts | 4° |
| 2026-05-05 16:09 | -36.72657 | 174.85831 | 39414 ft | 463 kts | 5° |
| 2026-05-05 16:09 | -36.66293 | 174.86851 | 39397 ft | 459 kts | 5° |
| 2026-05-05 16:10 | -36.59998 | 174.87865 | 39401 ft | 456 kts | 5° |
| 2026-05-05 16:10 | -36.53725 | 174.88865 | 39408 ft | 455 kts | 5° |
| 2026-05-05 16:11 | -36.47464 | 174.89858 | 39406 ft | 455 kts | 5° |
| 2026-05-05 16:12 | -36.34936 | 174.91838 | 39401 ft | 455 kts | 5° |
| 2026-05-05 16:13 | -36.19200 | 174.94317 | 39404 ft | 458 kts | 5° |
| 2026-05-05 16:13 | -36.12878 | 174.95310 | 39392 ft | 460 kts | 5° |
| 2026-05-05 16:14 | -36.00184 | 174.97300 | 39398 ft | 462 kts | 5° |
| 2026-05-05 16:15 | -35.87446 | 174.99291 | 39404 ft | 462 kts | 5° |
| 2026-05-05 16:16 | -35.74712 | 175.01274 | 39390 ft | 462 kts | 5° |
| 2026-05-05 16:17 | -35.65313 | 175.02733 | 39390 ft | 461 kts | 5° |
| 2026-05-05 16:18 | -35.55859 | 175.04198 | 39394 ft | 460 kts | 5° |
| 2026-05-05 16:19 | -35.46347 | 175.05669 | 39402 ft | 459 kts | 5° |
| 2026-05-05 16:19 | -35.36863 | 175.07131 | 39389 ft | 458 kts | 5° |
| 2026-05-05 16:20 | -35.24247 | 175.09070 | 39378 ft | 457 kts | 5° |
| 2026-05-05 16:22 | -35.08505 | 175.11482 | 39376 ft | 457 kts | 5° |
| 2026-05-05 16:23 | -34.95922 | 175.13403 | 39380 ft | 457 kts | 5° |
| 2026-05-05 16:23 | -34.86466 | 175.14842 | 39378 ft | 458 kts | 5° |
| 2026-05-05 16:24 | -34.80147 | 175.15803 | 39377 ft | 459 kts | 5° |
| 2026-05-05 16:25 | -34.70646 | 175.17244 | 39374 ft | 460 kts | 5° |
| 2026-05-05 16:25 | -34.61121 | 175.18685 | 39367 ft | 462 kts | 5° |
| 2026-05-05 16:26 | -34.48374 | 175.20609 | 39370 ft | 463 kts | 5° |
| 2026-05-05 16:27 | -34.41990 | 175.21570 | 39370 ft | 464 kts | 5° |
| 2026-05-05 16:27 | -34.35597 | 175.22532 | 39357 ft | 464 kts | 5° |
| 2026-05-05 16:28 | -34.29207 | 175.23491 | 39370 ft | 464 kts | 5° |
| 2026-05-05 16:28 | -34.22798 | 175.24451 | 39365 ft | 465 kts | 5° |
| 2026-05-05 16:29 | -34.16394 | 175.25410 | 39364 ft | 465 kts | 5° |
| 2026-05-05 16:29 | -34.09991 | 175.26367 | 39351 ft | 465 kts | 4° |
| 2026-05-05 16:30 | -34.03584 | 175.27323 | 39363 ft | 465 kts | 4° |
| 2026-05-05 16:30 | -33.97171 | 175.28278 | 39365 ft | 465 kts | 4° |
| 2026-05-05 16:31 | -33.90757 | 175.29232 | 39360 ft | 465 kts | 4° |
| 2026-05-05 16:31 | -33.84337 | 175.30186 | 39347 ft | 466 kts | 4° |
| 2026-05-05 16:32 | -33.77921 | 175.31138 | 39360 ft | 466 kts | 4° |
| 2026-05-05 16:32 | -33.71504 | 175.32088 | 39360 ft | 466 kts | 4° |
| 2026-05-05 16:33 | -33.65081 | 175.33044 | 39353 ft | 466 kts | 4° |
| 2026-05-05 16:33 | -33.58653 | 175.34010 | 39345 ft | 467 kts | 4° |
| 2026-05-05 16:34 | -33.52218 | 175.34978 | 39352 ft | 467 kts | 4° |
| 2026-05-05 16:34 | -33.45787 | 175.35942 | 39351 ft | 467 kts | 4° |
| 2026-05-05 16:35 | -33.39347 | 175.36906 | 39349 ft | 467 kts | 4° |
| 2026-05-05 16:35 | -33.32915 | 175.37867 | 39349 ft | 467 kts | 4° |
| 2026-05-05 16:36 | -33.26473 | 175.38827 | 39349 ft | 467 kts | 4° |
| 2026-05-05 16:36 | -33.20034 | 175.39786 | 39348 ft | 467 kts | 4° |
| 2026-05-05 16:37 | -33.13596 | 175.40744 | 39347 ft | 467 kts | 4° |
| 2026-05-05 16:37 | -33.07152 | 175.41701 | 39337 ft | 467 kts | 4° |
| 2026-05-05 16:38 | -33.00718 | 175.42655 | 39353 ft | 467 kts | 5° |
| 2026-05-05 16:38 | -32.94279 | 175.43609 | 39342 ft | 467 kts | 4° |
| 2026-05-05 16:39 | -32.87845 | 175.44560 | 39338 ft | 467 kts | 4° |
| 2026-05-05 16:39 | -32.81417 | 175.45508 | 39337 ft | 467 kts | 4° |
| 2026-05-05 16:40 | -32.75002 | 175.46454 | 39329 ft | 466 kts | 4° |
| 2026-05-05 16:40 | -32.68580 | 175.47399 | 39332 ft | 466 kts | 4° |
| 2026-05-05 16:41 | -32.62163 | 175.48342 | 39329 ft | 466 kts | 4° |
| 2026-05-05 16:41 | -32.55734 | 175.49286 | 39328 ft | 466 kts | 4° |
| 2026-05-05 16:42 | -32.49309 | 175.50227 | 39323 ft | 466 kts | 4° |
| 2026-05-05 16:42 | -32.43030 | 175.51146 | 39322 ft | 466 kts | 4° |
| 2026-05-05 16:43 | -32.36640 | 175.52080 | 39324 ft | 466 kts | 4° |
| 2026-05-05 16:43 | -32.30214 | 175.53018 | 39320 ft | 466 kts | 4° |
| 2026-05-05 16:44 | -32.23784 | 175.53955 | 39313 ft | 467 kts | 4° |
| 2026-05-05 16:44 | -32.17572 | 175.54859 | 39320 ft | 467 kts | 4° |
| 2026-05-05 16:45 | -32.11133 | 175.55794 | 39322 ft | 467 kts | 4° |
| 2026-05-05 16:45 | -32.04690 | 175.56729 | 39316 ft | 468 kts | 4° |
| 2026-05-05 16:46 | -31.98234 | 175.57665 | 39294 ft | 469 kts | 4° |
| 2026-05-05 16:46 | -31.91786 | 175.58598 | 39311 ft | 469 kts | 4° |
| 2026-05-05 16:47 | -31.85299 | 175.59535 | 39309 ft | 470 kts | 4° |
| 2026-05-05 16:47 | -31.78814 | 175.60471 | 39311 ft | 470 kts | 4° |
| 2026-05-05 16:48 | -31.72390 | 175.61396 | 39312 ft | 470 kts | 4° |
| 2026-05-05 16:48 | -31.65903 | 175.62330 | 39304 ft | 471 kts | 4° |
| 2026-05-05 16:49 | -31.59411 | 175.63262 | 39304 ft | 471 kts | 4° |
| 2026-05-05 16:49 | -31.52912 | 175.64195 | 39302 ft | 472 kts | 4° |
| 2026-05-05 16:50 | -31.46407 | 175.65127 | 39300 ft | 472 kts | 4° |
| 2026-05-05 16:50 | -31.39905 | 175.66057 | 39291 ft | 472 kts | 4° |
| 2026-05-05 16:51 | -31.33466 | 175.66977 | 39295 ft | 472 kts | 4° |
| 2026-05-05 16:51 | -31.26954 | 175.67907 | 39293 ft | 473 kts | 4° |
| 2026-05-05 16:52 | -31.20484 | 175.68829 | 39292 ft | 473 kts | 4° |
| 2026-05-05 16:52 | -31.13957 | 175.69757 | 39282 ft | 474 kts | 4° |
| 2026-05-05 16:53 | -31.07431 | 175.70685 | 39287 ft | 474 kts | 4° |
| 2026-05-05 16:53 | -31.00891 | 175.71613 | 39287 ft | 474 kts | 4° |
| 2026-05-05 16:54 | -30.94352 | 175.72540 | 39282 ft | 475 kts | 4° |
| 2026-05-05 16:54 | -30.87802 | 175.73466 | 39270 ft | 475 kts | 4° |
| 2026-05-05 16:55 | -30.81247 | 175.74389 | 39276 ft | 476 kts | 4° |
| 2026-05-05 16:55 | -30.74706 | 175.75309 | 39284 ft | 476 kts | 4° |
| 2026-05-05 16:56 | -30.68139 | 175.76231 | 39281 ft | 476 kts | 4° |
| 2026-05-05 16:56 | -30.61609 | 175.77148 | 39276 ft | 477 kts | 4° |
| 2026-05-05 16:57 | -30.55033 | 175.78070 | 39274 ft | 477 kts | 4° |
| 2026-05-05 16:57 | -30.48491 | 175.78985 | 39273 ft | 477 kts | 4° |
| 2026-05-05 16:58 | -30.41913 | 175.79905 | 39266 ft | 477 kts | 4° |
| 2026-05-05 16:58 | -30.35330 | 175.80825 | 39278 ft | 477 kts | 4° |
| 2026-05-05 16:59 | -30.28752 | 175.81743 | 39257 ft | 477 kts | 4° |
| 2026-05-05 16:59 | -30.22178 | 175.82657 | 39261 ft | 476 kts | 4° |
| 2026-05-05 17:00 | -30.15621 | 175.83568 | 39265 ft | 476 kts | 4° |
| 2026-05-05 17:00 | -30.09066 | 175.84478 | 39265 ft | 475 kts | 4° |
| 2026-05-05 17:01 | -30.02521 | 175.85386 | 39243 ft | 474 kts | 3° |
| 2026-05-05 17:01 | -29.95984 | 175.86291 | 39255 ft | 474 kts | 3° |
| 2026-05-05 17:02 | -29.89450 | 175.87194 | 39260 ft | 474 kts | 3° |
| 2026-05-05 17:02 | -29.82907 | 175.88098 | 39254 ft | 474 kts | 3° |
| 2026-05-05 17:03 | -29.76363 | 175.89000 | 39253 ft | 475 kts | 3° |
| 2026-05-05 17:03 | -29.69815 | 175.89902 | 39249 ft | 475 kts | 3° |
| 2026-05-05 17:04 | -29.63253 | 175.90805 | 39249 ft | 476 kts | 3° |
| 2026-05-05 17:04 | -29.56783 | 175.91693 | 39249 ft | 477 kts | 3° |
| 2026-05-05 17:05 | -29.50197 | 175.92597 | 39246 ft | 478 kts | 3° |
| 2026-05-05 17:05 | -29.43627 | 175.93497 | 39237 ft | 479 kts | 3° |
| 2026-05-05 17:06 | -29.37022 | 175.94401 | 39241 ft | 479 kts | 3° |
| 2026-05-05 17:06 | -29.30405 | 175.95305 | 39241 ft | 480 kts | 3° |
| 2026-05-05 17:07 | -29.23775 | 175.96210 | 39235 ft | 481 kts | 3° |
| 2026-05-05 17:07 | -29.17134 | 175.97116 | 39216 ft | 482 kts | 2° |
| 2026-05-05 17:08 | -29.10490 | 175.98020 | 39227 ft | 482 kts | 2° |
| 2026-05-05 17:08 | -29.03850 | 175.98923 | 39227 ft | 483 kts | 2° |
| 2026-05-05 17:09 | -28.97181 | 175.99828 | 39226 ft | 484 kts | 2° |
| 2026-05-05 17:09 | -28.90507 | 176.00733 | 39224 ft | 484 kts | 2° |
| 2026-05-05 17:10 | -28.83820 | 176.01639 | 39217 ft | 485 kts | 2° |
| 2026-05-05 17:10 | -28.77126 | 176.02545 | 39223 ft | 486 kts | 2° |
| 2026-05-05 17:11 | -28.70498 | 176.03440 | 39219 ft | 486 kts | 2° |
| 2026-05-05 17:11 | -28.63789 | 176.04345 | 39218 ft | 487 kts | 2° |
| 2026-05-05 17:12 | -28.57119 | 176.05244 | 39198 ft | 487 kts | 2° |
| 2026-05-05 17:12 | -28.50396 | 176.06148 | 39213 ft | 488 kts | 2° |
| 2026-05-05 17:13 | -28.43659 | 176.07054 | 39213 ft | 489 kts | 2° |
| 2026-05-05 17:13 | -28.36920 | 176.07958 | 39207 ft | 489 kts | 2° |
| 2026-05-05 17:14 | -28.30172 | 176.08863 | 39185 ft | 490 kts | 2° |
| 2026-05-05 17:14 | -28.23413 | 176.09768 | 39200 ft | 490 kts | 1° |
| 2026-05-05 17:15 | -28.16648 | 176.10672 | 39205 ft | 491 kts | 1° |
| 2026-05-05 17:15 | -28.09866 | 176.11578 | 39200 ft | 492 kts | 1° |
| 2026-05-05 17:16 | -28.03073 | 176.12484 | 39200 ft | 493 kts | 2° |
| 2026-05-05 17:16 | -27.96282 | 176.13389 | 39199 ft | 494 kts | 1° |
| 2026-05-05 17:17 | -27.89458 | 176.14296 | 39199 ft | 495 kts | 1° |
| 2026-05-05 17:17 | -27.82622 | 176.15205 | 39194 ft | 497 kts | 1° |
| 2026-05-05 17:18 | -27.75763 | 176.16116 | 39190 ft | 498 kts | 1° |
| 2026-05-05 17:18 | -27.68895 | 176.17027 | 39185 ft | 498 kts | 1° |
| 2026-05-05 17:19 | -27.62021 | 176.17939 | 39192 ft | 499 kts | 1° |
| 2026-05-05 17:19 | -27.55222 | 176.18840 | 39114 ft | 496 kts | 1° |
| 2026-05-05 17:20 | -27.48427 | 176.19742 | 39186 ft | 492 kts | 2° |
| 2026-05-05 17:20 | -27.41663 | 176.20638 | 39157 ft | 489 kts | 1° |
| 2026-05-05 17:21 | -27.34926 | 176.21527 | 39183 ft | 488 kts | 1° |
| 2026-05-05 17:22 | -27.24842 | 176.22855 | 39178 ft | 487 kts | 1° |
| 2026-05-05 17:22 | -27.18114 | 176.23740 | 39178 ft | 488 kts | 1° |
| 2026-05-05 17:23 | -27.11395 | 176.24623 | 39144 ft | 489 kts | 1° |
| 2026-05-05 17:23 | -27.04639 | 176.25510 | 39163 ft | 491 kts | 1° |
| 2026-05-05 17:24 | -26.97920 | 176.26391 | 39175 ft | 493 kts | 1° |
| 2026-05-05 17:24 | -26.91095 | 176.27284 | 39172 ft | 496 kts | 1° |
| 2026-05-05 17:25 | -26.84232 | 176.28182 | 39175 ft | 499 kts | 1° |
| 2026-05-05 17:25 | -26.77367 | 176.29080 | 39151 ft | 501 kts | 1° |
| 2026-05-05 17:26 | -26.70445 | 176.29984 | 39163 ft | 502 kts | 1° |
| 2026-05-05 17:26 | -26.63509 | 176.30889 | 39159 ft | 503 kts | 1° |
| 2026-05-05 17:27 | -26.56563 | 176.31794 | 39150 ft | 504 kts | 1° |
| 2026-05-05 17:27 | -26.49668 | 176.32691 | 39127 ft | 504 kts | 1° |
| 2026-05-05 17:28 | -26.42738 | 176.33592 | 39141 ft | 504 kts | 1° |
| 2026-05-05 17:28 | -26.35797 | 176.34492 | 39146 ft | 503 kts | 1° |
| 2026-05-05 17:29 | -26.28849 | 176.35393 | 39142 ft | 503 kts | 1° |
| 2026-05-05 17:29 | -26.21908 | 176.36291 | 39144 ft | 503 kts | 1° |
| 2026-05-05 17:30 | -26.14974 | 176.37188 | 39136 ft | 502 kts | 0° |
| 2026-05-05 17:30 | -26.08041 | 176.38083 | 39139 ft | 503 kts | 0° |
| 2026-05-05 17:31 | -26.01106 | 176.38977 | 39138 ft | 503 kts | 0° |
| 2026-05-05 17:31 | -25.94171 | 176.39870 | 39128 ft | 503 kts | 0° |
| 2026-05-05 17:32 | -25.87233 | 176.40763 | 39113 ft | 503 kts | 0° |
| 2026-05-05 17:32 | -25.80293 | 176.41655 | 39119 ft | 503 kts | 0° |
| 2026-05-05 17:33 | -25.73356 | 176.42545 | 39127 ft | 503 kts | 0° |
| 2026-05-05 17:33 | -25.66413 | 176.43435 | 39124 ft | 504 kts | 0° |
| 2026-05-05 17:34 | -25.59461 | 176.44325 | 39091 ft | 504 kts | 0° |
| 2026-05-05 17:34 | -25.52519 | 176.45214 | 39112 ft | 504 kts | 0° |
| 2026-05-05 17:35 | -25.45569 | 176.46102 | 39110 ft | 504 kts | 0° |
| 2026-05-05 17:35 | -25.38617 | 176.46989 | 39114 ft | 504 kts | 0° |
| 2026-05-05 17:36 | -25.31659 | 176.47876 | 39112 ft | 504 kts | 0° |
| 2026-05-05 17:36 | -25.24700 | 176.48762 | 39104 ft | 504 kts | 0° |
| 2026-05-05 17:37 | -25.17750 | 176.49646 | 39095 ft | 504 kts | 0° |
| 2026-05-05 17:37 | -25.10798 | 176.50529 | 39102 ft | 504 kts | 0° |
| 2026-05-05 17:38 | -25.03844 | 176.51412 | 39101 ft | 504 kts | 0° |
| 2026-05-05 17:38 | -24.96888 | 176.52293 | 39085 ft | 504 kts | 0° |
| 2026-05-05 17:39 | -24.89956 | 176.53169 | 39085 ft | 503 kts | 360° |
| 2026-05-05 17:39 | -24.83017 | 176.54043 | 39093 ft | 503 kts | 360° |
| 2026-05-05 17:40 | -24.76080 | 176.54917 | 39095 ft | 503 kts | 360° |
| 2026-05-05 17:40 | -24.69187 | 176.55785 | 39092 ft | 503 kts | 360° |
| 2026-05-05 17:41 | -24.62254 | 176.56657 | 39092 ft | 502 kts | 360° |
| 2026-05-05 17:41 | -24.55318 | 176.57529 | 39085 ft | 502 kts | 360° |
| 2026-05-05 17:42 | -24.48392 | 176.58398 | 39087 ft | 502 kts | 360° |
| 2026-05-05 17:42 | -24.41464 | 176.59266 | 39082 ft | 502 kts | 360° |
| 2026-05-05 17:43 | -24.34535 | 176.60134 | 39054 ft | 502 kts | 360° |
| 2026-05-05 17:43 | -24.27620 | 176.60999 | 39076 ft | 501 kts | 360° |
| 2026-05-05 17:44 | -24.20704 | 176.61863 | 39074 ft | 501 kts | 360° |
| 2026-05-05 17:44 | -24.13802 | 176.62724 | 39076 ft | 500 kts | 360° |
| 2026-05-05 17:45 | -24.06953 | 176.63578 | 39070 ft | 500 kts | 360° |
| 2026-05-05 17:45 | -24.00049 | 176.64438 | 39057 ft | 499 kts | 360° |
| 2026-05-05 17:46 | -23.93168 | 176.65294 | 39058 ft | 499 kts | 360° |
| 2026-05-05 17:46 | -23.86295 | 176.66148 | 39063 ft | 498 kts | 360° |
| 2026-05-05 17:47 | -23.79419 | 176.67002 | 39060 ft | 498 kts | 360° |
| 2026-05-05 17:47 | -23.72554 | 176.67853 | 39060 ft | 498 kts | 360° |
| 2026-05-05 17:48 | -23.65694 | 176.68703 | 39054 ft | 497 kts | 360° |
| 2026-05-05 17:48 | -23.58840 | 176.69551 | 39055 ft | 496 kts | 360° |
| 2026-05-05 17:49 | -23.52087 | 176.70385 | 39049 ft | 496 kts | 360° |
| 2026-05-05 17:49 | -23.45241 | 176.71230 | 39047 ft | 496 kts | 360° |
| 2026-05-05 17:50 | -23.38404 | 176.72073 | 39024 ft | 495 kts | 360° |
| 2026-05-05 17:50 | -23.31571 | 176.72914 | 39036 ft | 495 kts | 360° |
| 2026-05-05 17:51 | -23.24742 | 176.73752 | 39042 ft | 495 kts | 360° |
| 2026-05-05 17:51 | -23.17921 | 176.74594 | 39040 ft | 494 kts | 360° |
| 2026-05-05 17:52 | -23.11098 | 176.75435 | 39032 ft | 494 kts | 360° |
| 2026-05-05 17:52 | -23.04285 | 176.76271 | 39018 ft | 493 kts | 360° |
| 2026-05-05 17:53 | -22.97487 | 176.77104 | 39019 ft | 492 kts | 360° |
| 2026-05-05 17:53 | -22.90699 | 176.77935 | 39024 ft | 492 kts | 360° |
| 2026-05-05 17:54 | -22.83919 | 176.78764 | 39028 ft | 491 kts | 360° |
| 2026-05-05 17:54 | -22.77137 | 176.79593 | 39021 ft | 491 kts | 360° |
| 2026-05-05 17:55 | -22.70366 | 176.80419 | 39016 ft | 490 kts | 360° |
| 2026-05-05 17:55 | -22.63616 | 176.81243 | 39015 ft | 489 kts | 360° |
| 2026-05-05 17:56 | -22.56863 | 176.82066 | 39022 ft | 489 kts | 360° |
| 2026-05-05 17:56 | -22.50119 | 176.82887 | 39015 ft | 489 kts | 360° |
| 2026-05-05 17:57 | -22.43378 | 176.83706 | 39014 ft | 488 kts | 360° |
| 2026-05-05 17:57 | -22.36646 | 176.84524 | 39005 ft | 487 kts | 0° |
| 2026-05-05 17:58 | -22.29923 | 176.85341 | 39006 ft | 487 kts | 0° |
| 2026-05-05 17:58 | -22.23208 | 176.86155 | 39006 ft | 487 kts | 0° |
| 2026-05-05 17:59 | -22.16494 | 176.86968 | 39002 ft | 486 kts | 0° |
| 2026-05-05 17:59 | -22.09784 | 176.87780 | 38973 ft | 486 kts | 0° |
| 2026-05-05 18:00 | -22.03083 | 176.88591 | 38984 ft | 485 kts | 0° |
| 2026-05-05 18:00 | -21.96392 | 176.89399 | 38996 ft | 485 kts | 0° |
| 2026-05-05 18:01 | -21.89709 | 176.90205 | 39003 ft | 484 kts | 0° |
| 2026-05-05 18:01 | -21.83026 | 176.91011 | 38997 ft | 484 kts | 0° |
| 2026-05-05 18:02 | -21.76346 | 176.91815 | 38967 ft | 484 kts | 0° |
| 2026-05-05 18:02 | -21.69669 | 176.92619 | 38982 ft | 483 kts | 0° |
| 2026-05-05 18:03 | -21.63005 | 176.93421 | 38983 ft | 483 kts | 0° |
| 2026-05-05 18:03 | -21.56350 | 176.94220 | 38988 ft | 482 kts | 0° |
| 2026-05-05 18:04 | -21.49692 | 176.95017 | 38994 ft | 482 kts | 0° |
| 2026-05-05 18:04 | -21.43038 | 176.95815 | 38981 ft | 482 kts | 0° |
| 2026-05-05 18:05 | -21.36391 | 176.96613 | 38980 ft | 482 kts | 0° |
| 2026-05-05 18:05 | -21.29744 | 176.97409 | 38978 ft | 481 kts | 0° |
| 2026-05-05 18:06 | -21.23098 | 176.98203 | 38978 ft | 481 kts | 0° |
| 2026-05-05 18:06 | -21.16462 | 176.98996 | 38974 ft | 481 kts | 0° |
| 2026-05-05 18:07 | -21.09819 | 176.99789 | 38948 ft | 481 kts | 0° |
| 2026-05-05 18:07 | -21.03197 | 177.00579 | 38963 ft | 480 kts | 0° |
| 2026-05-05 18:08 | -20.96565 | 177.01369 | 38970 ft | 480 kts | 0° |
| 2026-05-05 18:08 | -20.89943 | 177.02157 | 38970 ft | 480 kts | 0° |
| 2026-05-05 18:09 | -20.83321 | 177.02945 | 38968 ft | 480 kts | 0° |
| 2026-05-05 18:09 | -20.76702 | 177.03731 | 38951 ft | 479 kts | 0° |
| 2026-05-05 18:10 | -20.70092 | 177.04516 | 38956 ft | 479 kts | 0° |
| 2026-05-05 18:10 | -20.63485 | 177.05300 | 38960 ft | 479 kts | 0° |
| 2026-05-05 18:11 | -20.56876 | 177.06083 | 38960 ft | 479 kts | 0° |
| 2026-05-05 18:11 | -20.50271 | 177.06865 | 38959 ft | 479 kts | 0° |
| 2026-05-05 18:12 | -20.43667 | 177.07647 | 38931 ft | 478 kts | 0° |
| 2026-05-05 18:12 | -20.37071 | 177.08427 | 38949 ft | 477 kts | 0° |
| 2026-05-05 18:13 | -20.30489 | 177.09205 | 38953 ft | 476 kts | 0° |
| 2026-05-05 18:13 | -20.23922 | 177.09980 | 38955 ft | 476 kts | 0° |
| 2026-05-05 18:14 | -20.17359 | 177.10752 | 38949 ft | 475 kts | 0° |
| 2026-05-05 18:14 | -20.10801 | 177.11524 | 38921 ft | 475 kts | 0° |
| 2026-05-05 18:15 | -20.04250 | 177.12295 | 38933 ft | 474 kts | 1° |
| 2026-05-05 18:15 | -19.97717 | 177.13063 | 38938 ft | 473 kts | 0° |
| 2026-05-05 18:16 | -19.91188 | 177.13829 | 38943 ft | 473 kts | 0° |
| 2026-05-05 18:16 | -19.84657 | 177.14596 | 38934 ft | 473 kts | 0° |
| 2026-05-05 18:17 | -19.78134 | 177.15361 | 38937 ft | 472 kts | 0° |
| 2026-05-05 18:17 | -19.71660 | 177.16119 | 38922 ft | 472 kts | 1° |
| 2026-05-05 18:18 | -19.65163 | 177.16880 | 38929 ft | 471 kts | 1° |
| 2026-05-05 18:18 | -19.58735 | 177.17632 | 38930 ft | 471 kts | 1° |
| 2026-05-05 18:19 | -19.52227 | 177.18392 | 38860 ft | 472 kts | 1° |
| 2026-05-05 18:19 | -19.48944 | 177.18774 | 38233 ft | 477 kts | 1° |
| 2026-05-05 18:19 | -19.45665 | 177.19157 | 37607 ft | 476 kts | 1° |
| 2026-05-05 18:19 | -19.42373 | 177.19542 | 36900 ft | 477 kts | 1° |
| 2026-05-05 18:20 | -19.39075 | 177.19927 | 36224 ft | 478 kts | 1° |
| 2026-05-05 18:20 | -19.35770 | 177.20313 | 35478 ft | 481 kts | 1° |
| 2026-05-05 18:20 | -19.32439 | 177.20700 | 34647 ft | 487 kts | 1° |
| 2026-05-05 18:20 | -19.29055 | 177.21090 | 33768 ft | 494 kts | 1° |
| 2026-05-05 18:21 | -19.25642 | 177.21482 | 33024 ft | 494 kts | 1° |
| 2026-05-05 18:21 | -19.22257 | 177.21870 | 32378 ft | 492 kts | 2° |
| 2026-05-05 18:21 | -19.18873 | 177.22259 | 31768 ft | 489 kts | 2° |
| 2026-05-05 18:21 | -19.15509 | 177.22646 | 31168 ft | 485 kts | 2° |
| 2026-05-05 18:22 | -19.12170 | 177.23030 | 30580 ft | 482 kts | 2° |
| 2026-05-05 18:22 | -19.08856 | 177.23410 | 29948 ft | 479 kts | 2° |
| 2026-05-05 18:22 | -19.05563 | 177.23787 | 29271 ft | 474 kts | 2° |
| 2026-05-05 18:22 | -19.02305 | 177.24160 | 28611 ft | 470 kts | 2° |
| 2026-05-05 18:23 | -18.99083 | 177.24529 | 27989 ft | 465 kts | 2° |
| 2026-05-05 18:23 | -18.95883 | 177.24894 | 27362 ft | 461 kts | 2° |
| 2026-05-05 18:23 | -18.92715 | 177.25256 | 26746 ft | 457 kts | 2° |
| 2026-05-05 18:23 | -18.89579 | 177.25614 | 26140 ft | 453 kts | 2° |
| 2026-05-05 18:24 | -18.86502 | 177.25965 | 25540 ft | 451 kts | 3° |
| 2026-05-05 18:24 | -18.83394 | 177.26319 | 24904 ft | 449 kts | 3° |
| 2026-05-05 18:24 | -18.80300 | 177.26671 | 24282 ft | 447 kts | 3° |
| 2026-05-05 18:24 | -18.77217 | 177.27023 | 23655 ft | 446 kts | 4° |
| 2026-05-05 18:25 | -18.74146 | 177.27372 | 22943 ft | 444 kts | 4° |
| 2026-05-05 18:25 | -18.72108 | 177.27605 | 22501 ft | 442 kts | 4° |
| 2026-05-05 18:25 | -18.68067 | 177.28066 | 21653 ft | 435 kts | 4° |
| 2026-05-05 18:25 | -18.65093 | 177.28406 | 21030 ft | 426 kts | 4° |
| 2026-05-05 18:26 | -18.62202 | 177.28737 | 20416 ft | 413 kts | 4° |
| 2026-05-05 18:26 | -18.59400 | 177.29057 | 19844 ft | 400 kts | 4° |
| 2026-05-05 18:26 | -18.56669 | 177.29368 | 19260 ft | 390 kts | 4° |
| 2026-05-05 18:26 | -18.54011 | 177.29670 | 18680 ft | 381 kts | 4° |
| 2026-05-05 18:27 | -18.51411 | 177.29965 | 18100 ft | 373 kts | 4° |
| 2026-05-05 18:27 | -18.48841 | 177.30255 | 17495 ft | 373 kts | 4° |
| 2026-05-05 18:27 | -18.46268 | 177.30546 | 16916 ft | 372 kts | 4° |
| 2026-05-05 18:27 | -18.43705 | 177.30837 | 16345 ft | 371 kts | 5° |
| 2026-05-05 18:28 | -18.38655 | 177.31760 | 15203 ft | 369 kts | 15° |
| 2026-05-05 18:28 | -18.36215 | 177.32554 | 14631 ft | 367 kts | 18° |
| 2026-05-05 18:28 | -18.33803 | 177.33394 | 14050 ft | 366 kts | 18° |
| 2026-05-05 18:29 | -18.31395 | 177.34232 | 13425 ft | 364 kts | 18° |
| 2026-05-05 18:29 | -18.29009 | 177.35050 | 12810 ft | 361 kts | 18° |
| 2026-05-05 18:29 | -18.26629 | 177.35844 | 12213 ft | 357 kts | 18° |
| 2026-05-05 18:29 | -18.24278 | 177.36615 | 11632 ft | 353 kts | 17° |
| 2026-05-05 18:30 | -18.21945 | 177.37375 | 11058 ft | 350 kts | 18° |
| 2026-05-05 18:30 | -18.19636 | 177.38124 | 10361 ft | 350 kts | 18° |
| 2026-05-05 18:30 | -18.17335 | 177.38866 | 9940 ft | 343 kts | 18° |
| 2026-05-05 18:30 | -18.15151 | 177.39570 | 9680 ft | 331 kts | 18° |
| 2026-05-05 18:31 | -18.13023 | 177.40255 | 9507 ft | 316 kts | 18° |
| 2026-05-05 18:31 | -18.10990 | 177.40909 | 9487 ft | 298 kts | 18° |
| 2026-05-05 18:31 | -18.09080 | 177.41524 | 9275 ft | 289 kts | 18° |
| 2026-05-05 18:31 | -18.07172 | 177.42139 | 8899 ft | 287 kts | 18° |
| 2026-05-05 18:32 | -18.05273 | 177.42751 | 8513 ft | 285 kts | 18° |
| 2026-05-05 18:32 | -18.03385 | 177.43359 | 8146 ft | 283 kts | 18° |
| 2026-05-05 18:32 | -18.01515 | 177.43962 | 7792 ft | 281 kts | 18° |
| 2026-05-05 18:32 | -17.99650 | 177.44562 | 7427 ft | 280 kts | 18° |
| 2026-05-05 18:33 | -17.97833 | 177.45147 | 7088 ft | 277 kts | 18° |
| 2026-05-05 18:33 | -17.95996 | 177.45738 | 6729 ft | 276 kts | 18° |
| 2026-05-05 18:33 | -17.94170 | 177.46325 | 6390 ft | 274 kts | 18° |
| 2026-05-05 18:33 | -17.92358 | 177.46908 | 6051 ft | 272 kts | 19° |
| 2026-05-05 18:34 | -17.90556 | 177.47487 | 5687 ft | 271 kts | 19° |
| 2026-05-05 18:34 | -17.88775 | 177.48059 | 5514 ft | 263 kts | 19° |
| 2026-05-05 18:34 | -17.87074 | 177.48605 | 5424 ft | 251 kts | 19° |
| 2026-05-05 18:34 | -17.85519 | 177.49297 | 5313 ft | 237 kts | 38° |
| 2026-05-05 18:35 | -17.84263 | 177.50325 | 5242 ft | 225 kts | 41° |
| 2026-05-05 18:35 | -17.83072 | 177.51302 | 5160 ft | 215 kts | 40° |
| 2026-05-05 18:35 | -17.81922 | 177.52237 | 5079 ft | 205 kts | 40° |
| 2026-05-05 18:35 | -17.80795 | 177.53137 | 4860 ft | 204 kts | 37° |
| 2026-05-05 18:36 | -17.79558 | 177.53824 | 4671 ft | 202 kts | 22° |
| 2026-05-05 18:36 | -17.78231 | 177.54125 | 4593 ft | 191 kts | 6° |
| 2026-05-05 18:36 | -17.76950 | 177.54050 | 4498 ft | 180 kts | 351° |
| 2026-05-05 18:36 | -17.75790 | 177.53684 | 4376 ft | 170 kts | 338° |
| 2026-05-05 18:37 | -17.74778 | 177.53128 | 4205 ft | 163 kts | 330° |
| 2026-05-05 18:37 | -17.73840 | 177.52422 | 4049 ft | 164 kts | 318° |
| 2026-05-05 18:37 | -17.73060 | 177.51512 | 4121 ft | 172 kts | 304° |
| 2026-05-05 18:37 | -17.72486 | 177.50429 | 4115 ft | 167 kts | 290° |
| 2026-05-05 18:38 | -17.72174 | 177.49287 | 4100 ft | 161 kts | 277° |
| 2026-05-05 18:38 | -17.72136 | 177.48121 | 4113 ft | 161 kts | 260° |
| 2026-05-05 18:38 | -17.72460 | 177.47017 | 4107 ft | 158 kts | 238° |
| 2026-05-05 18:38 | -17.73145 | 177.46144 | 4116 ft | 154 kts | 213° |
| 2026-05-05 18:39 | -17.74002 | 177.45472 | 4114 ft | 155 kts | 212° |
| 2026-05-05 18:39 | -17.74869 | 177.44791 | 4124 ft | 155 kts | 212° |
| 2026-05-05 18:39 | -17.75731 | 177.44122 | 4110 ft | 154 kts | 211° |
| 2026-05-05 18:39 | -17.76586 | 177.43455 | 4117 ft | 153 kts | 212° |
| 2026-05-05 18:40 | -17.77442 | 177.42790 | 4118 ft | 154 kts | 211° |
| 2026-05-05 18:40 | -17.78300 | 177.42122 | 4117 ft | 154 kts | 211° |
| 2026-05-05 18:40 | -17.79158 | 177.41454 | 4110 ft | 154 kts | 212° |
| 2026-05-05 18:40 | -17.80013 | 177.40789 | 4108 ft | 153 kts | 211° |
| 2026-05-05 18:41 | -17.80868 | 177.40126 | 4110 ft | 153 kts | 212° |
| 2026-05-05 18:41 | -17.81719 | 177.39466 | 4107 ft | 152 kts | 212° |
| 2026-05-05 18:41 | -17.82569 | 177.38807 | 4109 ft | 151 kts | 211° |
| 2026-05-05 18:41 | -17.83410 | 177.38151 | 4108 ft | 152 kts | 212° |
| 2026-05-05 18:42 | -17.84259 | 177.37492 | 4117 ft | 153 kts | 211° |
| 2026-05-05 18:42 | -17.85129 | 177.36838 | 4122 ft | 157 kts | 203° |
| 2026-05-05 18:42 | -17.86290 | 177.36811 | 4152 ft | 197 kts | 154° |
| 2026-05-05 18:42 | -17.87253 | 177.37865 | 4117 ft | 209 kts | 111° |
| 2026-05-05 18:43 | -17.87265 | 177.39480 | 4129 ft | 242 kts | 80° |
| 2026-05-05 18:43 | -17.86895 | 177.41248 | 4119 ft | 257 kts | 82° |
| 2026-05-05 18:43 | -17.86620 | 177.43093 | 4096 ft | 255 kts | 85° |
| 2026-05-05 18:43 | -17.86420 | 177.44935 | 4077 ft | 252 kts | 87° |
| 2026-05-05 18:44 | -17.86259 | 177.46699 | 4096 ft | 234 kts | 87° |
| 2026-05-05 18:44 | -17.86016 | 177.48323 | 4090 ft | 221 kts | 71° |
| 2026-05-05 18:44 | -17.85176 | 177.49650 | 3885 ft | 223 kts | 47° |
| 2026-05-05 18:44 | -17.83964 | 177.50671 | 3615 ft | 224 kts | 40° |
| 2026-05-05 18:45 | -17.82719 | 177.51655 | 3308 ft | 225 kts | 41° |
| 2026-05-05 18:45 | -17.81493 | 177.52628 | 2990 ft | 217 kts | 41° |
| 2026-05-05 18:45 | -17.80259 | 177.53477 | 2694 ft | 210 kts | 32° |
| 2026-05-05 18:45 | -17.78925 | 177.54018 | 2440 ft | 202 kts | 17° |
| 2026-05-05 18:46 | -17.77563 | 177.54159 | 2193 ft | 194 kts | 0° |
| 2026-05-05 18:46 | -17.76274 | 177.53927 | 1920 ft | 183 kts | 345° |
| 2026-05-05 18:46 | -17.75146 | 177.53413 | 1719 ft | 172 kts | 333° |
| 2026-05-05 18:46 | -17.74175 | 177.52743 | 1487 ft | 157 kts | 323° |
| 2026-05-05 18:47 | -17.73426 | 177.51996 | 1260 ft | 143 kts | 310° |
| 2026-05-05 18:47 | -17.72890 | 177.51179 | 1080 ft | 131 kts | 298° |
| 2026-05-05 18:47 | -17.72525 | 177.50317 | 943 ft | 129 kts | 288° |
| 2026-05-05 18:47 | -17.72293 | 177.49448 | 803 ft | 130 kts | 280° |
| 2026-05-05 18:48 | -17.72178 | 177.48515 | 589 ft | 129 kts | 271° |
| 2026-05-05 18:48 | -17.72268 | 177.47608 | 407 ft | 124 kts | 252° |
| 2026-05-05 18:48 | -17.72622 | 177.46798 | 281 ft | 124 kts | 237° |
| 2026-05-05 18:48 | -17.73172 | 177.46109 | 176 ft | 120 kts | 215° |
| 2026-05-05 18:49 | -17.73870 | 177.45641 | 277 ft | 122 kts | 209° |
| 2026-05-05 18:49 | -17.74581 | 177.45118 | 239 ft | 127 kts | 217° |
| 2026-05-05 18:49 | -17.75266 | 177.44531 | 45 ft | 126 kts | 215° |
| 2026-05-05 18:49 | -17.75888 | 177.44029 | 31 ft | 97 kts | 218° |
| 2026-05-05 18:50 | -17.76329 | 177.43677 | 31 ft | 63 kts | 217° |
| 2026-05-05 18:50 | -17.76588 | 177.43463 | 33 ft | 33 kts | 217° |
| 2026-05-05 18:50 | -17.76752 | 177.43331 | 32 ft | 28 kts | 218° |
| 2026-05-05 18:50 | -17.76889 | 177.43221 | 33 ft | 22 kts | 217° |
| 2026-05-05 18:51 | -17.77005 | 177.43128 | 32 ft | 21 kts | 217° |
| 2026-05-05 18:51 | -17.77118 | 177.43037 | 31 ft | 20 kts | 217° |
| 2026-05-05 18:51 | -17.77232 | 177.42956 | 31 ft | 20 kts | 200° |
| 2026-05-05 18:51 | -17.77296 | 177.42916 | 31 ft | 9 kts | 221° |
| 2026-05-05 18:52 | -17.77300 | 177.42911 | 31 ft | 0 kts | 222° |
| 2026-05-05 18:52 | -17.77301 | 177.42911 | 31 ft | 1 kts | 222° |
| 2026-05-05 18:52 | -17.77322 | 177.42871 | 29 ft | 8 kts | 261° |
| 2026-05-05 18:52 | -17.77285 | 177.42847 | 31 ft | 8 kts | 16° |
| 2026-05-05 18:53 | -17.77255 | 177.42890 | 30 ft | 8 kts | 79° |
| 2026-05-05 18:53 | -17.77229 | 177.42947 | 31 ft | 17 kts | 41° |
| 2026-05-05 18:53 | -17.77090 | 177.43060 | 31 ft | 29 kts | 38° |
| 2026-05-05 18:53 | -17.76898 | 177.43216 | 32 ft | 46 kts | 38° |
| 2026-05-05 18:54 | -17.76648 | 177.43416 | 33 ft | 44 kts | 37° |
| 2026-05-05 18:54 | -17.76412 | 177.43606 | 32 ft | 41 kts | 37° |
| 2026-05-05 18:54 | -17.76168 | 177.43801 | 31 ft | 48 kts | 38° |
| 2026-05-05 18:54 | -17.75912 | 177.44008 | 32 ft | 45 kts | 37° |
| 2026-05-05 18:55 | -17.75674 | 177.44202 | 32 ft | 42 kts | 38° |
| 2026-05-05 18:55 | -17.75448 | 177.44385 | 29 ft | 40 kts | 37° |
| 2026-05-05 18:55 | -17.75290 | 177.44510 | 29 ft | 13 kts | 38° |
| 2026-05-05 18:55 | -17.75221 | 177.44566 | 29 ft | 13 kts | 38° |
| 2026-05-05 18:56 | -17.75167 | 177.44610 | 29 ft | 8 kts | 38° |
| 2026-05-05 18:56 | -17.75123 | 177.44648 | 28 ft | 8 kts | 48° |
| 2026-05-05 18:56 | -17.75115 | 177.44704 | 31 ft | 8 kts | 103° |
| 2026-05-05 18:56 | -17.75127 | 177.44760 | 32 ft | 8 kts | 104° |
| 2026-05-05 18:57 | -17.75140 | 177.44813 | 32 ft | 7 kts | 104° |
| 2026-05-05 18:57 | -17.75149 | 177.44850 | 31 ft | 0 kts | 104° |
| 2026-05-05 18:57 | -17.75156 | 177.44881 | 31 ft | 9 kts | 104° |
| 2026-05-05 18:57 | -17.75173 | 177.44952 | 31 ft | 10 kts | 104° |
| 2026-05-05 18:58 | -17.75183 | 177.44995 | 31 ft | 0 kts | 105° |
| 2026-05-05 18:58 | -17.75194 | 177.45011 | 31 ft | 5 kts | 128° |
| 2026-05-05 18:58 | -17.75199 | 177.45019 | 31 ft | 0 kts | 114° |
| 2026-05-05 18:59 | -17.75201 | 177.45028 | 31 ft | 0 kts | 104° |
| 2026-05-05 18:59 | -17.75201 | 177.45029 | 31 ft | 0 kts | 104° |